createdAt,value
2022-11-16T00:00:24.921Z,63.99
2022-11-16T00:01:29.203Z,64.08
2022-11-16T00:02:33.693Z,64.06
2022-11-16T00:03:37.972Z,64.25
2022-11-16T00:04:42.256Z,64.18
2022-11-16T00:05:46.535Z,64.74
2022-11-16T00:06:51.059Z,64.12
2022-11-16T00:07:55.404Z,64.22
2022-11-16T00:08:59.742Z,63.96
2022-11-16T00:10:04.018Z,64.07
2022-11-16T00:11:10.700Z,63.98
2022-11-16T00:12:14.966Z,64.42
2022-11-16T00:13:19.217Z,64.77
2022-11-16T00:14:23.486Z,64.42
2022-11-16T00:15:27.818Z,64.56
2022-11-16T00:16:32.369Z,64.44
2022-11-16T00:17:36.630Z,64.24
2022-11-16T00:18:40.930Z,64.17
2022-11-16T00:19:45.218Z,64.51
2022-11-16T00:20:49.483Z,64.2
2022-11-16T00:21:53.761Z,64.04
2022-11-16T00:22:58.037Z,64.34
2022-11-16T00:24:02.339Z,64.64
2022-11-16T00:25:06.606Z,64.43
2022-11-16T00:26:10.862Z,64.53
2022-11-16T00:27:15.174Z,64.63
2022-11-16T00:28:19.437Z,64.87
2022-11-16T00:29:23.739Z,64.43
2022-11-16T00:30:27.993Z,64.27
2022-11-16T00:31:32.281Z,64.31
2022-11-16T00:32:36.575Z,64.26
2022-11-16T00:33:40.830Z,64.21
2022-11-16T00:34:45.119Z,64.41
2022-11-16T00:35:49.405Z,64.27
2022-11-16T00:36:53.701Z,64.38
2022-11-16T00:37:58.000Z,64.51
2022-11-16T00:39:02.281Z,64.66
2022-11-16T00:40:06.592Z,64.49
2022-11-16T00:41:10.842Z,64.58
2022-11-16T00:42:15.187Z,64.4
2022-11-16T00:43:19.440Z,64.44
2022-11-16T00:44:23.981Z,64.4
2022-11-16T00:45:28.253Z,64.83
2022-11-16T00:46:32.597Z,64.52
2022-11-16T00:47:36.892Z,64.78
2022-11-16T00:48:41.174Z,64.51
2022-11-16T00:49:45.499Z,64.57
2022-11-16T00:50:49.785Z,64.89
2022-11-16T00:51:54.049Z,64.59
2022-11-16T00:52:58.298Z,64.43
2022-11-16T00:54:02.545Z,64.79
2022-11-16T00:55:06.828Z,64.71
2022-11-16T00:56:11.085Z,64.74
2022-11-16T00:57:15.375Z,64.43
2022-11-16T00:58:19.626Z,64.72
2022-11-16T00:59:23.868Z,64.61
2022-11-16T01:00:28.142Z,64.68
2022-11-16T01:01:32.805Z,64.52
2022-11-16T01:02:37.117Z,65.08
2022-11-16T01:03:41.385Z,64.79
2022-11-16T01:04:46.703Z,64.59
2022-11-16T01:05:50.965Z,64.42
2022-11-16T01:06:55.501Z,64.46
2022-11-16T01:07:59.819Z,64.94
2022-11-16T01:09:04.256Z,64.84
2022-11-16T01:10:08.529Z,65.05
2022-11-16T01:11:12.799Z,64.75
2022-11-16T01:12:17.061Z,64.52
2022-11-16T01:13:21.349Z,64.69
2022-11-16T01:14:25.611Z,64.75
2022-11-16T01:15:30.042Z,64.76
2022-11-16T01:16:34.306Z,64.76
2022-11-16T01:17:38.611Z,64.86
2022-11-16T01:18:42.877Z,64.59
2022-11-16T01:19:47.238Z,64.59
2022-11-16T01:20:51.521Z,64.65
2022-11-16T01:21:55.772Z,65.1
2022-11-16T01:23:00.047Z,64.72
2022-11-16T01:24:04.338Z,64.77
2022-11-16T01:25:08.629Z,64.82
2022-11-16T01:26:12.907Z,65.03
2022-11-16T01:27:17.234Z,64.67
2022-11-16T01:28:21.496Z,64.71
2022-11-16T01:29:25.773Z,64.83
2022-11-16T01:30:30.049Z,64.88
2022-11-16T01:31:34.321Z,64.88
2022-11-16T01:32:38.580Z,64.93
2022-11-16T01:33:42.869Z,65.55
2022-11-16T01:34:47.162Z,64.94
2022-11-16T01:35:51.663Z,65.01
2022-11-16T01:36:55.946Z,65.48
2022-11-16T01:38:00.192Z,65.15
2022-11-16T01:39:04.504Z,65.25
2022-11-16T01:40:08.806Z,64.77
2022-11-16T01:41:13.114Z,65.32
2022-11-16T01:42:17.390Z,64.93
2022-11-16T01:43:21.678Z,64.96
2022-11-16T01:44:25.971Z,64.92
2022-11-16T01:45:30.217Z,64.75
2022-11-16T01:46:34.480Z,65.84
2022-11-16T01:47:38.746Z,65.06
2022-11-16T01:48:43.286Z,65.01
2022-11-16T01:49:47.608Z,65.02
2022-11-16T01:50:51.938Z,65.12
2022-11-16T01:51:56.301Z,65
2022-11-16T01:53:00.572Z,64.67
2022-11-16T01:54:04.838Z,64.89
2022-11-16T01:55:09.101Z,65.04
2022-11-16T01:56:13.394Z,64.88
2022-11-16T01:57:17.694Z,64.89
2022-11-16T01:58:21.926Z,65.31
2022-11-16T01:59:26.184Z,65.07
2022-11-16T02:00:30.434Z,65.07
2022-11-16T02:01:34.819Z,64.88
2022-11-16T02:02:39.088Z,64.77
2022-11-16T02:03:43.381Z,64.92
2022-11-16T02:04:47.670Z,65.47
2022-11-16T02:05:51.939Z,64.96
2022-11-16T02:06:56.407Z,65.03
2022-11-16T02:08:01.752Z,65.14
2022-11-16T02:09:06.079Z,64.93
2022-11-16T02:10:10.341Z,65.13
2022-11-16T02:11:14.585Z,65.46
2022-11-16T02:12:18.854Z,65.17
2022-11-16T02:13:23.111Z,65.16
2022-11-16T02:14:27.368Z,64.98
2022-11-16T02:15:31.651Z,65.45
2022-11-16T02:16:35.929Z,65.07
2022-11-16T02:17:40.183Z,65.38
2022-11-16T02:18:44.425Z,64.94
2022-11-16T02:19:48.688Z,65.01
2022-11-16T02:20:52.998Z,65.14
2022-11-16T02:21:57.305Z,65.52
2022-11-16T02:23:01.549Z,65.57
2022-11-16T02:24:05.861Z,65.79
2022-11-16T02:25:10.133Z,65.34
2022-11-16T02:26:17.580Z,65.12
2022-11-16T02:27:21.851Z,65.12
2022-11-16T02:28:26.130Z,65.13
2022-11-16T02:29:30.386Z,64.94
2022-11-16T02:30:34.653Z,65.37
2022-11-16T02:31:38.919Z,65.17
2022-11-16T02:32:43.201Z,65.09
2022-11-16T02:33:47.441Z,64.98
2022-11-16T02:34:51.775Z,64.9
2022-11-16T02:35:56.092Z,64.86
2022-11-16T02:37:00.389Z,65.12
2022-11-16T02:38:04.675Z,65.52
2022-11-16T02:39:09.005Z,65.02
2022-11-16T02:40:13.254Z,65.14
2022-11-16T02:41:17.573Z,65.03
2022-11-16T02:42:21.842Z,65.67
2022-11-16T02:43:26.095Z,65.63
2022-11-16T02:44:30.353Z,64.91
2022-11-16T02:45:34.760Z,65.4
2022-11-16T02:46:39.048Z,64.98
2022-11-16T02:47:43.318Z,65.3
2022-11-16T02:48:47.560Z,65.19
2022-11-16T02:49:51.862Z,65.14
2022-11-16T02:50:56.139Z,64.97
2022-11-16T02:52:00.461Z,65.03
2022-11-16T02:53:04.743Z,65.19
2022-11-16T02:54:09.105Z,64.85
2022-11-16T02:55:13.363Z,64.81
2022-11-16T02:56:17.646Z,64.91
2022-11-16T02:57:21.920Z,65.01
2022-11-16T02:58:26.216Z,65.04
2022-11-16T02:59:30.480Z,65.1
2022-11-16T03:00:35.110Z,65.16
2022-11-16T03:01:41.820Z,65.29
2022-11-16T03:02:46.083Z,65.61
2022-11-16T03:03:50.375Z,65.1
2022-11-16T03:04:54.662Z,65.5
2022-11-16T03:05:58.920Z,65.2
2022-11-16T03:07:03.369Z,64.95
2022-11-16T03:08:07.661Z,65.26
2022-11-16T03:09:11.989Z,65.26
2022-11-16T03:10:16.237Z,64.99
2022-11-16T03:11:20.491Z,65.27
2022-11-16T03:12:25.056Z,65.07
2022-11-16T03:13:29.300Z,65.06
2022-11-16T03:14:33.816Z,65.74
2022-11-16T03:15:38.062Z,65.03
2022-11-16T03:16:42.328Z,65.31
2022-11-16T03:17:46.573Z,65.65
2022-11-16T03:18:50.849Z,65.21
2022-11-16T03:19:55.154Z,65.1
2022-11-16T03:20:59.416Z,65.25
2022-11-16T03:22:03.712Z,65.24
2022-11-16T03:23:07.975Z,64.87
2022-11-16T03:24:12.240Z,64.85
2022-11-16T03:25:16.502Z,64.87
2022-11-16T03:26:20.771Z,65.1
2022-11-16T03:27:25.077Z,65.26
2022-11-16T03:28:29.340Z,65.21
2022-11-16T03:29:33.630Z,65.14
2022-11-16T03:30:37.890Z,65.04
2022-11-16T03:31:42.155Z,64.99
2022-11-16T03:32:46.504Z,64.92
2022-11-16T03:33:50.805Z,64.99
2022-11-16T03:34:55.094Z,65.01
2022-11-16T03:35:59.375Z,65.15
2022-11-16T03:37:03.659Z,65.01
2022-11-16T03:38:07.967Z,64.98
2022-11-16T03:39:12.249Z,65.05
2022-11-16T03:40:16.540Z,65.34
2022-11-16T03:41:20.818Z,65.3
2022-11-16T03:42:25.104Z,65.06
2022-11-16T03:43:29.422Z,65.16
2022-11-16T03:44:33.839Z,65.33
2022-11-16T03:45:38.090Z,65.16
2022-11-16T03:46:42.346Z,65.45
2022-11-16T03:47:46.616Z,65.14
2022-11-16T03:48:50.881Z,65.3
2022-11-16T03:49:55.129Z,65.11
2022-11-16T03:50:59.495Z,65.22
2022-11-16T03:52:03.746Z,65.03
2022-11-16T03:53:08.025Z,64.96
2022-11-16T03:54:12.284Z,65.3
2022-11-16T03:55:16.535Z,65.1
2022-11-16T03:56:20.818Z,65.11
2022-11-16T03:57:25.096Z,65.52
2022-11-16T03:58:31.940Z,65.86
2022-11-16T03:59:36.405Z,64.93
2022-11-16T04:00:40.829Z,65.53
2022-11-16T04:01:47.195Z,65.1
2022-11-16T04:02:51.454Z,65.12
2022-11-16T04:03:56.039Z,65.88
2022-11-16T04:05:00.478Z,66.05
2022-11-16T04:06:04.777Z,66.11
2022-11-16T04:07:09.273Z,66.26
2022-11-16T04:08:13.607Z,65.77
2022-11-16T04:09:17.872Z,66.31
2022-11-16T04:10:22.178Z,66.18
2022-11-16T04:11:26.449Z,66.06
2022-11-16T04:12:30.741Z,66.16
2022-11-16T04:13:35.013Z,65.84
2022-11-16T04:14:39.294Z,65.98
2022-11-16T04:15:43.654Z,66.11
2022-11-16T04:16:47.907Z,66.11
2022-11-16T04:17:52.162Z,65.61
2022-11-16T04:18:56.428Z,65.88
2022-11-16T04:20:00.685Z,65.94
2022-11-16T04:21:04.960Z,66.21
2022-11-16T04:22:09.209Z,66.3
2022-11-16T04:23:13.479Z,65.54
2022-11-16T04:24:17.794Z,65.48
2022-11-16T04:25:22.063Z,65.8
2022-11-16T04:26:26.350Z,66.2
2022-11-16T04:27:30.627Z,66.47
2022-11-16T04:28:36.230Z,65.94
2022-11-16T04:29:40.737Z,65.66
2022-11-16T04:30:45.016Z,65.58
2022-11-16T04:31:49.319Z,66.12
2022-11-16T04:32:53.601Z,66.05
2022-11-16T04:33:57.874Z,65.62
2022-11-16T04:35:02.131Z,65.59
2022-11-16T04:36:06.415Z,65.78
2022-11-16T04:37:10.701Z,66.1
2022-11-16T04:38:14.978Z,66.08
2022-11-16T04:39:19.288Z,66.21
2022-11-16T04:40:23.552Z,66.22
2022-11-16T04:41:27.827Z,66.26
2022-11-16T04:42:32.118Z,66.33
2022-11-16T04:43:36.379Z,66.16
2022-11-16T04:44:40.685Z,66.27
2022-11-16T04:45:44.971Z,66.23
2022-11-16T04:46:49.257Z,66.24
2022-11-16T04:47:53.540Z,66.46
2022-11-16T04:48:57.821Z,66.47
2022-11-16T04:50:02.175Z,66.39
2022-11-16T04:51:06.450Z,66.33
2022-11-16T04:52:10.725Z,66.41
2022-11-16T04:53:15.004Z,66.48
2022-11-16T04:54:19.516Z,66.42
2022-11-16T04:55:26.111Z,66.4
2022-11-16T04:56:30.424Z,66.27
2022-11-16T04:57:34.690Z,66.43
2022-11-16T04:58:39.093Z,66.43
2022-11-16T04:59:43.347Z,66.33
2022-11-16T05:00:47.795Z,66.37
2022-11-16T05:01:52.333Z,66.56
2022-11-16T05:03:03.110Z,66.31
2022-11-16T05:04:07.361Z,66.21
2022-11-16T05:05:11.602Z,66.23
2022-11-16T05:06:15.896Z,65.72
2022-11-16T05:07:20.454Z,65.74
2022-11-16T05:08:24.774Z,65.5
2022-11-16T05:09:29.035Z,64.45
2022-11-16T05:10:33.288Z,63.95
2022-11-16T05:11:37.559Z,62.92
2022-11-16T05:12:41.860Z,62.28
2022-11-16T05:13:46.141Z,62.57
2022-11-16T05:14:50.418Z,61.98
2022-11-16T05:15:54.680Z,62.07
2022-11-16T05:16:58.977Z,61.77
2022-11-16T05:18:03.249Z,61.56
2022-11-16T05:19:07.544Z,61.32
2022-11-16T05:20:11.808Z,61.28
2022-11-16T05:21:16.084Z,61.05
2022-11-16T05:22:20.376Z,61.01
2022-11-16T05:23:24.610Z,60.76
2022-11-16T05:24:31.394Z,60.72
2022-11-16T05:25:38.945Z,60.5
2022-11-16T05:26:43.238Z,60.47
2022-11-16T05:27:47.490Z,60.44
2022-11-16T05:28:51.711Z,60.32
2022-11-16T05:29:55.978Z,60.29
2022-11-16T05:31:00.255Z,60.19
2022-11-16T05:32:04.499Z,60.17
2022-11-16T05:33:08.780Z,60.07
2022-11-16T05:34:13.064Z,60
2022-11-16T05:35:17.321Z,60
2022-11-16T05:36:21.639Z,59.93
2022-11-16T05:37:25.938Z,59.88
2022-11-16T05:38:30.288Z,59.89
2022-11-16T05:39:34.576Z,59.77
2022-11-16T05:40:38.859Z,59.76
2022-11-16T05:41:43.205Z,59.66
2022-11-16T05:42:47.480Z,59.75
2022-11-16T05:43:51.732Z,59.63
2022-11-16T05:44:55.988Z,59.72
2022-11-16T05:46:00.259Z,59.65
2022-11-16T05:47:04.528Z,59.71
2022-11-16T05:48:08.789Z,59.69
2022-11-16T05:49:13.067Z,59.67
2022-11-16T05:50:17.335Z,59.76
2022-11-16T05:51:21.610Z,59.82
2022-11-16T05:52:25.913Z,59.86
2022-11-16T05:53:30.206Z,59.81
2022-11-16T05:54:34.562Z,59.93
2022-11-16T05:55:38.847Z,60
2022-11-16T05:56:43.232Z,60.05
2022-11-16T05:57:47.502Z,59.97
2022-11-16T05:58:51.764Z,60.05
2022-11-16T05:59:56.053Z,60.08
2022-11-16T06:01:00.370Z,60.12
2022-11-16T06:02:04.727Z,60.12
2022-11-16T06:03:09.190Z,60.14
2022-11-16T06:04:13.758Z,60.17
2022-11-16T06:05:18.080Z,60.31
2022-11-16T06:06:22.355Z,60.3
2022-11-16T06:07:26.837Z,60.34
2022-11-16T06:08:31.374Z,60.4
2022-11-16T06:09:35.811Z,60.36
2022-11-16T06:10:40.091Z,60.35
2022-11-16T06:11:44.355Z,60.39
2022-11-16T06:12:48.685Z,60.44
2022-11-16T06:13:52.972Z,60.59
2022-11-16T06:14:57.243Z,60.53
2022-11-16T06:16:01.493Z,60.51
2022-11-16T06:17:05.757Z,60.56
2022-11-16T06:18:10.113Z,60.65
2022-11-16T06:19:14.358Z,60.64
2022-11-16T06:20:18.604Z,60.65
2022-11-16T06:21:22.853Z,60.75
2022-11-16T06:22:27.101Z,60.71
2022-11-16T06:23:31.410Z,60.69
2022-11-16T06:24:35.711Z,60.67
2022-11-16T06:25:39.971Z,60.68
2022-11-16T06:26:44.481Z,60.74
2022-11-16T06:27:48.773Z,60.75
2022-11-16T06:28:53.105Z,60.77
2022-11-16T06:29:57.361Z,60.67
2022-11-16T06:31:01.626Z,60.63
2022-11-16T06:32:05.922Z,60.63
2022-11-16T06:33:10.156Z,60.6
2022-11-16T06:34:14.415Z,60.71
2022-11-16T06:35:18.690Z,60.65
2022-11-16T06:36:22.988Z,60.69
2022-11-16T06:37:27.257Z,60.38
2022-11-16T06:38:31.855Z,60.2
2022-11-16T06:39:36.431Z,60.06
2022-11-16T06:40:40.720Z,59.95
2022-11-16T06:41:45.022Z,59.7
2022-11-16T06:42:49.283Z,59.64
2022-11-16T06:43:53.537Z,59.56
2022-11-16T06:44:57.827Z,59.49
2022-11-16T06:46:02.114Z,59.45
2022-11-16T06:47:06.381Z,59.42
2022-11-16T06:48:10.674Z,59.41
2022-11-16T06:49:14.934Z,59.49
2022-11-16T06:50:19.219Z,59.39
2022-11-16T06:51:23.571Z,59.58
2022-11-16T06:52:27.865Z,59.54
2022-11-16T06:53:32.165Z,59.59
2022-11-16T06:54:36.473Z,59.74
2022-11-16T06:55:40.831Z,59.7
2022-11-16T06:56:45.150Z,59.78
2022-11-16T06:57:49.427Z,59.79
2022-11-16T06:58:55.649Z,59.83
2022-11-16T06:59:59.916Z,59.89
2022-11-16T07:01:04.198Z,59.98
2022-11-16T07:02:08.684Z,59.86
2022-11-16T07:03:12.977Z,59.95
2022-11-16T07:04:17.292Z,59.98
2022-11-16T07:05:21.862Z,60.02
2022-11-16T07:06:26.124Z,60.08
2022-11-16T07:07:30.727Z,59.97
2022-11-16T07:08:36.304Z,60.1
2022-11-16T07:09:40.718Z,60.1
2022-11-16T07:10:44.989Z,60.08
2022-11-16T07:11:49.263Z,60.08
2022-11-16T07:12:53.539Z,60.17
2022-11-16T07:13:57.841Z,60.16
2022-11-16T07:15:02.125Z,60.21
2022-11-16T07:16:06.382Z,60.31
2022-11-16T07:17:11.862Z,60.27
2022-11-16T07:18:16.146Z,60.36
2022-11-16T07:19:20.398Z,60.34
2022-11-16T07:20:24.939Z,60.28
2022-11-16T07:21:29.213Z,60.44
2022-11-16T07:22:33.481Z,60.38
2022-11-16T07:23:37.772Z,60.4
2022-11-16T07:24:42.160Z,60.44
2022-11-16T07:25:46.426Z,60.45
2022-11-16T07:26:50.721Z,60.41
2022-11-16T07:27:54.985Z,60.47
2022-11-16T07:28:59.267Z,60.52
2022-11-16T07:30:03.573Z,60.47
2022-11-16T07:31:07.945Z,60.5
2022-11-16T07:32:12.223Z,60.6
2022-11-16T07:33:16.506Z,60.55
2022-11-16T07:34:20.782Z,60.55
2022-11-16T07:35:25.067Z,60.59
2022-11-16T07:36:30.381Z,60.6
2022-11-16T07:37:34.663Z,60.6
2022-11-16T07:38:39.076Z,60.62
2022-11-16T07:39:43.430Z,60.57
2022-11-16T07:40:47.710Z,60.59
2022-11-16T07:41:51.960Z,60.55
2022-11-16T07:42:56.237Z,60.46
2022-11-16T07:44:00.506Z,60.46
2022-11-16T07:45:04.819Z,60.36
2022-11-16T07:46:48.979Z,60.43
2022-11-16T07:47:53.391Z,60.11
2022-11-16T07:48:57.669Z,59.85
2022-11-16T07:50:02.055Z,59.6
2022-11-16T07:51:06.343Z,59.4
2022-11-16T07:52:10.644Z,59.25
2022-11-16T07:53:14.900Z,59.19
2022-11-16T07:54:19.180Z,59.12
2022-11-16T07:55:23.440Z,59.03
2022-11-16T07:56:27.745Z,59
2022-11-16T07:57:32.045Z,58.93
2022-11-16T07:58:37.361Z,58.96
2022-11-16T07:59:41.642Z,59.05
2022-11-16T08:00:45.931Z,58.99
2022-11-16T08:01:50.579Z,59.09
2022-11-16T08:02:54.922Z,59.23
2022-11-16T08:03:59.300Z,59.22
2022-11-16T08:05:06.597Z,59.25
2022-11-16T08:06:10.886Z,59.27
2022-11-16T08:07:15.398Z,59.4
2022-11-16T08:08:19.718Z,59.49
2022-11-16T08:09:24.059Z,59.46
2022-11-16T08:10:28.651Z,59.54
2022-11-16T08:11:32.963Z,59.6
2022-11-16T08:12:37.257Z,59.42
2022-11-16T08:13:41.612Z,59.48
2022-11-16T08:14:45.946Z,59.49
2022-11-16T08:15:50.256Z,59.57
2022-11-16T08:16:54.535Z,59.59
2022-11-16T08:17:58.799Z,59.59
2022-11-16T08:19:03.130Z,59.69
2022-11-16T08:20:07.604Z,59.71
2022-11-16T08:21:11.914Z,59.8
2022-11-16T08:22:16.680Z,59.73
2022-11-16T08:23:20.955Z,59.85
2022-11-16T08:24:25.213Z,59.76
2022-11-16T08:25:29.490Z,59.79
2022-11-16T08:26:33.795Z,59.9
2022-11-16T08:27:38.044Z,59.85
2022-11-16T08:28:42.341Z,59.8
2022-11-16T08:29:46.635Z,59.76
2022-11-16T08:30:55.587Z,59.95
2022-11-16T08:31:59.911Z,59.51
2022-11-16T08:33:04.206Z,59.25
2022-11-16T08:34:08.503Z,59.09
2022-11-16T08:35:12.868Z,59.11
2022-11-16T08:36:17.603Z,58.88
2022-11-16T08:37:21.870Z,58.86
2022-11-16T08:38:26.198Z,59.03
2022-11-16T08:39:30.476Z,58.93
2022-11-16T08:40:34.747Z,58.99
2022-11-16T08:41:39.001Z,59
2022-11-16T08:42:46.007Z,58.97
2022-11-16T08:43:50.282Z,59.1
2022-11-16T08:44:54.574Z,58.95
2022-11-16T08:45:58.902Z,59.02
2022-11-16T08:47:03.186Z,59.03
2022-11-16T08:48:07.482Z,59.08
2022-11-16T08:49:11.769Z,59.2
2022-11-16T08:50:16.038Z,59.1
2022-11-16T08:51:22.374Z,59.05
2022-11-16T08:52:28.113Z,59.07
2022-11-16T08:53:32.390Z,58.94
2022-11-16T08:54:36.694Z,59.17
2022-11-16T08:55:40.942Z,59.23
2022-11-16T08:56:45.268Z,59.17
2022-11-16T08:57:50.578Z,59.11
2022-11-16T08:59:00.698Z,59.11
2022-11-16T09:00:05.034Z,58.82
2022-11-16T09:01:09.297Z,58.3
2022-11-16T09:02:13.800Z,58.2
2022-11-16T09:03:18.100Z,57.96
2022-11-16T09:04:22.422Z,57.83
2022-11-16T09:05:26.715Z,57.81
2022-11-16T09:06:30.989Z,57.83
2022-11-16T09:07:35.656Z,57.78
2022-11-16T09:08:40.021Z,57.78
2022-11-16T09:09:44.337Z,57.91
2022-11-16T09:10:48.608Z,57.76
2022-11-16T09:11:53.010Z,57.88
2022-11-16T09:12:57.315Z,57.96
2022-11-16T09:14:01.574Z,58.12
2022-11-16T09:15:05.860Z,58.11
2022-11-16T09:16:10.134Z,58.24
2022-11-16T09:17:21.837Z,58.21
2022-11-16T09:18:27.236Z,58.32
2022-11-16T09:19:31.521Z,58.31
2022-11-16T09:20:35.817Z,58.36
2022-11-16T09:21:40.086Z,58.62
2022-11-16T09:22:44.354Z,58.53
2022-11-16T09:23:48.650Z,58.67
2022-11-16T09:24:52.947Z,58.77
2022-11-16T09:25:57.283Z,58.74
2022-11-16T09:27:01.582Z,58.51
2022-11-16T09:28:05.847Z,58.7
2022-11-16T09:29:10.090Z,58.78
2022-11-16T09:30:14.459Z,58.8
2022-11-16T09:31:25.188Z,58.92
2022-11-16T09:32:29.507Z,58.65
2022-11-16T09:33:35.179Z,58.55
2022-11-16T09:34:39.669Z,58.56
2022-11-16T09:35:44.035Z,58.79
2022-11-16T09:36:48.331Z,58.53
2022-11-16T09:37:52.620Z,58.41
2022-11-16T09:39:32.889Z,58.57
2022-11-16T09:40:37.188Z,58.26
2022-11-16T09:41:41.499Z,58.67
2022-11-16T09:42:45.833Z,58.4
2022-11-16T09:43:50.087Z,58.38
2022-11-16T09:44:54.381Z,58.35
2022-11-16T09:45:58.681Z,58.43
2022-11-16T09:47:02.966Z,58.28
2022-11-16T09:48:07.225Z,58.41
2022-11-16T09:49:19.492Z,58.32
2022-11-16T09:50:23.870Z,58.53
2022-11-16T09:51:28.167Z,58.48
2022-11-16T09:52:34.714Z,58.23
2022-11-16T09:53:40.408Z,58.48
2022-11-16T09:54:44.681Z,58.76
2022-11-16T09:55:48.955Z,58.84
2022-11-16T09:56:53.223Z,58.7
2022-11-16T09:57:57.482Z,58.74
2022-11-16T09:59:01.758Z,58.87
2022-11-16T10:00:06.063Z,58.68
2022-11-16T10:01:10.701Z,58.75
2022-11-16T10:02:15.027Z,58.74
2022-11-16T10:03:19.353Z,58.62
2022-11-16T10:04:23.655Z,58.81
2022-11-16T10:05:27.960Z,58.79
2022-11-16T10:06:32.254Z,58.82
2022-11-16T10:07:36.733Z,58.55
2022-11-16T10:08:41.074Z,58.64
2022-11-16T10:09:45.339Z,58.66
2022-11-16T10:10:49.688Z,58.69
2022-11-16T10:11:56.972Z,58.82
2022-11-16T10:13:01.299Z,58.61
2022-11-16T10:14:06.514Z,58.09
2022-11-16T10:15:10.957Z,57.82
2022-11-16T10:16:15.313Z,57.7
2022-11-16T10:17:19.590Z,57.43
2022-11-16T10:18:23.871Z,57.28
2022-11-16T10:19:28.140Z,57.26
2022-11-16T10:20:33.331Z,57.14
2022-11-16T10:21:37.639Z,57.11
2022-11-16T10:22:42.110Z,57.12
2022-11-16T10:23:46.401Z,57.15
2022-11-16T10:24:50.679Z,57.14
2022-11-16T10:25:54.942Z,57.19
2022-11-16T10:26:59.282Z,57.34
2022-11-16T10:28:03.604Z,57.21
2022-11-16T10:29:08.075Z,57.43
2022-11-16T10:30:12.339Z,57.5
2022-11-16T10:31:16.701Z,57.67
2022-11-16T10:32:21.080Z,57.52
2022-11-16T10:33:25.353Z,57.69
2022-11-16T10:34:29.644Z,57.81
2022-11-16T10:35:33.908Z,57.84
2022-11-16T10:36:38.219Z,57.88
2022-11-16T10:37:42.513Z,58.07
2022-11-16T10:38:46.801Z,58.14
2022-11-16T10:39:51.060Z,58.15
2022-11-16T10:40:55.472Z,58.26
2022-11-16T10:42:07.566Z,58.11
2022-11-16T10:43:12.182Z,58.22
2022-11-16T10:44:18.965Z,58.25
2022-11-16T10:45:23.255Z,58.24
2022-11-16T10:46:27.553Z,58.44
2022-11-16T10:47:36.039Z,58.44
2022-11-16T10:48:40.360Z,58.55
2022-11-16T10:49:44.659Z,58.53
2022-11-16T10:50:48.966Z,58.37
2022-11-16T10:51:53.254Z,58.52
2022-11-16T10:52:57.522Z,58.69
2022-11-16T10:54:05.020Z,58.57
2022-11-16T10:55:09.307Z,58.7
2022-11-16T10:56:13.694Z,58.68
2022-11-16T10:57:18.020Z,58.84
2022-11-16T10:58:22.271Z,58.84
2022-11-16T10:59:26.575Z,58.75
2022-11-16T11:00:31.037Z,58.77
2022-11-16T11:01:35.396Z,58.82
2022-11-16T11:02:39.679Z,58.87
2022-11-16T11:03:43.952Z,58.83
2022-11-16T11:04:48.218Z,58.8
2022-11-16T11:05:52.515Z,58.89
2022-11-16T11:06:57.135Z,58.9
2022-11-16T11:08:02.886Z,58.56
2022-11-16T11:09:07.170Z,57.64
2022-11-16T11:10:11.499Z,57.09
2022-11-16T11:11:15.777Z,56.51
2022-11-16T11:12:20.102Z,56.15
2022-11-16T11:13:24.404Z,55.99
2022-11-16T11:14:28.727Z,55.5
2022-11-16T11:15:33.006Z,55.22
2022-11-16T11:16:37.289Z,54.62
2022-11-16T11:17:41.611Z,54.69
2022-11-16T11:18:45.890Z,54.39
2022-11-16T11:19:50.185Z,54.17
2022-11-16T11:20:54.512Z,54.32
2022-11-16T11:21:58.840Z,54.86
2022-11-16T11:23:03.150Z,56
2022-11-16T11:24:46.381Z,56.09
2022-11-16T11:25:50.639Z,56.13
2022-11-16T11:26:54.928Z,56.12
2022-11-16T11:28:00.488Z,56.14
2022-11-16T11:29:04.787Z,56.23
2022-11-16T11:30:09.048Z,56.27
2022-11-16T11:31:13.403Z,56.18
2022-11-16T11:32:25.698Z,55.72
2022-11-16T11:33:29.962Z,55.74
2022-11-16T11:34:34.294Z,55.44
2022-11-16T11:35:38.569Z,55.16
2022-11-16T11:36:42.865Z,55.07
2022-11-16T11:37:47.113Z,54.99
2022-11-16T11:38:51.818Z,54.83
2022-11-16T11:39:56.100Z,54.87
2022-11-16T11:41:00.396Z,54.86
2022-11-16T11:42:04.663Z,54.92
2022-11-16T11:43:08.942Z,54.86
2022-11-16T11:44:13.196Z,54.73
2022-11-16T11:45:17.443Z,54.93
2022-11-16T11:46:21.732Z,54.96
2022-11-16T11:48:00.912Z,55.02
2022-11-16T11:49:05.246Z,55.13
2022-11-16T11:50:09.519Z,55.35
2022-11-16T11:51:13.814Z,55.45
2022-11-16T11:52:18.073Z,55.51
2022-11-16T11:53:22.355Z,55.5
2022-11-16T11:54:26.649Z,55.58
2022-11-16T11:55:30.925Z,55.59
2022-11-16T11:56:35.272Z,55.71
2022-11-16T11:57:39.539Z,55.88
2022-11-16T11:58:43.836Z,55.81
2022-11-16T11:59:48.152Z,55.96
2022-11-16T12:00:52.438Z,56.08
2022-11-16T12:01:56.704Z,56.23
2022-11-16T12:03:01.260Z,56.22
2022-11-16T12:04:05.582Z,56.41
2022-11-16T12:05:09.859Z,56.42
2022-11-16T12:06:14.150Z,56.61
2022-11-16T12:07:18.581Z,56.66
2022-11-16T12:08:22.901Z,56.64
2022-11-16T12:09:27.172Z,56.79
2022-11-16T12:10:31.481Z,56.71
2022-11-16T12:11:38.031Z,56.74
2022-11-16T12:12:42.290Z,56.9
2022-11-16T12:13:46.566Z,56.91
2022-11-16T12:14:50.823Z,56.91
2022-11-16T12:15:55.109Z,56.99
2022-11-16T12:16:59.407Z,56.92
2022-11-16T12:18:03.674Z,57.02
2022-11-16T12:19:08.027Z,57.21
2022-11-16T12:20:12.327Z,57.07
2022-11-16T12:21:16.631Z,57.1
2022-11-16T12:22:20.890Z,57.25
2022-11-16T12:23:25.137Z,57.15
2022-11-16T12:24:29.402Z,57.24
2022-11-16T12:25:33.819Z,57.26
2022-11-16T12:26:38.116Z,57.4
2022-11-16T12:27:42.403Z,57.41
2022-11-16T12:28:52.792Z,57.46
2022-11-16T12:29:57.055Z,57.36
2022-11-16T12:31:01.340Z,57.47
2022-11-16T12:32:05.665Z,57.6
2022-11-16T12:33:09.951Z,57.63
2022-11-16T12:34:14.279Z,57.84
2022-11-16T12:35:18.585Z,57.81
2022-11-16T12:36:22.865Z,57.69
2022-11-16T12:37:27.162Z,57.81
2022-11-16T12:38:32.478Z,57.73
2022-11-16T12:39:36.779Z,57.71
2022-11-16T12:40:41.104Z,57.88
2022-11-16T12:41:45.411Z,57.89
2022-11-16T12:42:49.669Z,57.87
2022-11-16T12:43:53.928Z,57.68
2022-11-16T12:44:58.191Z,58
2022-11-16T12:46:02.490Z,57.97
2022-11-16T12:47:06.792Z,57.88
2022-11-16T12:48:11.078Z,57.76
2022-11-16T12:49:15.381Z,58.04
2022-11-16T12:50:19.693Z,57.88
2022-11-16T12:51:31.707Z,57.83
2022-11-16T12:52:36.448Z,57.81
2022-11-16T12:53:40.768Z,58.01
2022-11-16T12:55:27.903Z,57.96
2022-11-16T12:56:32.498Z,57.79
2022-11-16T12:57:36.762Z,57.96
2022-11-16T12:58:41.099Z,57.81
2022-11-16T12:59:45.363Z,57.83
2022-11-16T13:00:50.871Z,57.98
2022-11-16T13:02:02.148Z,57.91
2022-11-16T13:03:06.414Z,58.04
2022-11-16T13:04:10.702Z,58.06
2022-11-16T13:05:14.976Z,58.05
2022-11-16T13:06:19.262Z,57.91
2022-11-16T13:07:23.884Z,57.99
2022-11-16T13:08:28.166Z,57.51
2022-11-16T13:09:32.458Z,57.85
2022-11-16T13:10:36.817Z,58.15
2022-11-16T13:11:41.107Z,58.23
2022-11-16T13:12:45.405Z,58.26
2022-11-16T13:13:55.776Z,58.1
2022-11-16T13:15:00.259Z,57.81
2022-11-16T13:16:04.516Z,57.51
2022-11-16T13:17:08.820Z,57.31
2022-11-16T13:18:13.130Z,56.93
2022-11-16T13:19:17.413Z,56.74
2022-11-16T13:20:21.665Z,56.48
2022-11-16T13:21:25.952Z,56.38
2022-11-16T13:22:30.230Z,56.26
2022-11-16T13:23:35.699Z,56.22
2022-11-16T13:24:40.399Z,56.21
2022-11-16T13:25:44.991Z,56.07
2022-11-16T13:26:49.247Z,56.04
2022-11-16T13:27:53.527Z,56.17
2022-11-16T13:28:57.837Z,56.19
2022-11-16T13:30:02.159Z,56.34
2022-11-16T13:31:06.429Z,56.35
2022-11-16T13:32:10.710Z,56.36
2022-11-16T13:33:15.005Z,56.42
2022-11-16T13:34:19.267Z,56.45
2022-11-16T13:35:23.518Z,56.45
2022-11-16T13:36:27.849Z,56.58
2022-11-16T13:37:32.171Z,56.63
2022-11-16T13:38:37.425Z,56.68
2022-11-16T13:39:41.731Z,56.85
2022-11-16T13:40:46.039Z,56.93
2022-11-16T13:41:50.320Z,56.99
2022-11-16T13:42:54.621Z,57.01
2022-11-16T13:43:58.885Z,57.1
2022-11-16T13:45:03.159Z,57.13
2022-11-16T13:46:18.104Z,57.19
2022-11-16T13:47:31.935Z,57.19
2022-11-16T13:48:37.953Z,57.29
2022-11-16T13:49:42.371Z,57.17
2022-11-16T13:50:46.666Z,57.48
2022-11-16T13:51:50.963Z,57.35
2022-11-16T13:54:46.347Z,57.49
2022-11-16T13:55:50.923Z,57.71
2022-11-16T13:56:55.204Z,57.67
2022-11-16T13:57:59.488Z,57.52
2022-11-16T13:59:03.772Z,57.63